Time;durP1;ratioP1;P1;durP2;ratioP2;P2;SDS_P1;SDS_P2;PMS_P1;PMS_P2;Temp;Humidity;BMP_temperature;BMP_pressure;BME280_temperature;BME280_humidity;BME280_pressure;Samples;Min_cycle;Max_cycle;Signal;HPM_P1;HPM_P2
2022/05/10 04:28:55;;;;;;;;;;;;;;;16.59;69.26;97456.53;4247971;27;10217;-72
2022/05/10 04:30:57;;;;;;;;;;;;;;;16.80;68.92;97455.41;4249193;27;5658;-71
2022/05/10 04:32:59;;;;;;;;;;;;;;;16.98;68.67;97452.78;4247559;27;5608;-73
2022/05/10 04:35:01;;;;;;;;;;;;;;;17.12;68.53;97458.88;4247737;27;5657;-72
2022/05/10 04:37:03;;;;;;;;;;;;;;;17.24;68.11;97451.78;4247391;27;5629;-72
2022/05/10 04:39:05;;;;;;;;;;;;;;;17.32;67.86;97459.47;4246073;27;5653;-72
2022/05/10 04:41:26;;;;;;;;;;;;;;;17.40;67.59;97466.41;4248693;27;5083;-73
2022/05/10 04:43:28;;;;;;;;;;;;;;;17.47;67.46;97464.50;4248010;27;5596;-72
2022/05/10 04:45:29;;;;;;;;;;;;;;;17.54;67.18;97459.06;4248538;27;5658;-73
2022/05/10 04:47:31;;;;;;;;;;;;;;;17.58;67.11;97458.44;4247395;27;5666;-72
2022/05/10 04:49:33;;;;;;;;;;;;;;;17.64;66.80;97464.72;4245391;27;5725;-73
2022/05/10 04:51:35;;;;;;;;;;;;;;;17.68;66.67;97457.94;4248698;27;5666;-73
2022/05/10 04:53:37;;;;;;;;;;;;;;;17.71;66.48;97457.50;4247515;27;5744;-72
2022/05/10 04:55:38;;;;;;;;;;;;;;;17.73;66.41;97466.13;4248886;27;5768;-72
2022/05/10 04:57:41;;;;;;;;;;;;;;;17.75;66.24;97464.84;4248672;27;5724;-72
2022/05/10 04:59:43;;;;;;;;;;;;;;;17.79;66.11;97465.25;4248724;27;5665;-71
2022/05/10 05:01:45;;;;;;;;;;;;;;;17.83;65.89;97477.13;4248783;27;5674;-72
2022/05/10 05:03:49;;;;;;;;;;;;;;;17.88;65.67;97469.22;4247723;27;5724;-72
2022/05/10 05:05:50;;;;;;;;;;;;;;;17.92;65.42;97483.00;4248542;27;5722;-72
2022/05/10 05:07:52;;;;;;;;;;;;;;;17.94;65.15;97481.72;4247718;27;5658;-72
2022/05/10 05:09:55;;;;;;;;;;;;;;;17.97;65.08;97483.94;4247419;27;5593;-71
2022/05/10 05:11:57;;;;;;;;;;;;;;;18.00;64.84;97483.50;4247356;27;5645;-71
2022/05/10 05:13:59;;;;;;;;;;;;;;;18.01;64.88;97474.47;4238358;27;5631;-72
2022/05/10 05:16:01;;;;;;;;;;;;;;;18.03;64.68;97482.25;4245865;27;5717;-71
2022/05/10 05:18:04;;;;;;;;;;;;;;;18.06;64.71;97483.66;4247981;27;5846;-71
2022/05/10 05:20:07;;;;;;;;;;;;;;;18.08;64.59;97478.91;4247039;27;5771;-71
2022/05/10 05:22:09;;;;;;;;;;;;;;;18.10;64.40;97491.00;4240613;27;5619;-71
2022/05/10 05:24:11;;;;;;;;;;;;;;;18.11;64.29;97481.94;4229686;28;5684;-71
2022/05/10 05:26:14;;;;;;;;;;;;;;;18.14;64.28;97488.72;4245385;27;5682;-66
2022/05/10 05:28:16;;;;;;;;;;;;;;;18.15;64.19;97490.34;4232354;27;5872;-71
2022/05/10 05:30:17;;;;;;;;;;;;;;;18.15;64.28;97487.69;4235359;28;5674;-74
2022/05/10 05:32:24;;;;;;;;;;;;;;;18.17;64.25;97496.28;4236161;28;5637;-68
2022/05/10 05:34:25;;;;;;;;;;;;;;;18.18;64.11;97492.56;4234860;28;5798;-68
2022/05/10 05:36:27;;;;;;;;;;;;;;;18.22;63.79;97499.09;4234953;27;5658;-68
2022/05/10 05:38:29;;;;;;;;;;;;;;;18.23;63.75;97496.22;4233875;28;5692;-68
2022/05/10 05:40:33;;;;;;;;;;;;;;;18.27;63.82;97504.63;4234605;28;5613;-69
2022/05/10 05:42:35;;;;;;;;;;;;;;;18.31;63.59;97506.59;4234825;28;5805;-68
2022/05/10 05:44:37;;;;;;;;;;;;;;;18.33;63.57;97501.84;4236117;27;5740;-68
2022/05/10 05:46:39;;;;;;;;;;;;;;;18.38;63.20;97501.19;4234514;28;5743;-68
2022/05/10 05:48:40;;;;;;;;;;;;;;;18.48;63.17;97504.13;4235205;27;5705;-68
2022/05/10 05:50:42;;;;;;;;;;;;;;;18.63;62.65;97506.41;4235857;28;5730;-68
2022/05/10 05:52:45;;;;;;;;;;;;;;;18.77;62.03;97507.88;4236042;28;5670;-69
2022/05/10 05:54:51;;;;;;;;;;;;;;;18.89;61.80;97508.72;4232387;27;5841;-70
2022/05/10 05:57:04;;;;;;;;;;;;;;;19.00;61.72;97498.28;4238760;27;5658;-70
2022/05/10 05:59:07;;;;;;;;;;;;;;;19.10;61.55;97507.41;4235268;28;5781;-68
2022/05/10 06:01:13;;;;;;;;;;;;;;;19.17;61.22;97505.44;4236321;28;5079;-68
2022/05/10 06:03:15;;;;;;;;;;;;;;;19.24;61.37;97512.53;4235889;28;5749;-68
2022/05/10 06:05:18;;;;;;;;;;;;;;;19.30;61.35;97517.00;4236422;28;6306;-69
2022/05/10 06:07:20;;;;;;;;;;;;;;;19.34;61.08;97504.75;4234560;28;6290;-68
2022/05/10 06:09:24;;;;;;;;;;;;;;;19.37;61.12;97509.66;4236039;28;5663;-68
2022/05/10 06:11:26;;;;;;;;;;;;;;;19.41;60.81;97513.50;4236294;28;5790;-68
2022/05/10 06:13:28;;;;;;;;;;;;;;;19.44;60.70;97507.69;4236019;28;5646;-68
2022/05/10 06:15:30;;;;;;;;;;;;;;;19.46;60.80;97509.06;4235846;28;5630;-68
2022/05/10 06:17:31;;;;;;;;;;;;;;;19.51;60.56;97504.91;4235681;27;5757;-69
2022/05/10 06:19:38;;;;;;;;;;;;;;;19.55;60.14;97512.25;4235520;28;5800;-69
2022/05/10 06:21:41;;;;;;;;;;;;;;;19.60;60.26;97508.91;4236055;27;5665;-69
2022/05/10 06:23:43;;;;;;;;;;;;;;;19.63;59.98;97513.78;4235333;28;5884;-69
2022/05/10 06:25:44;;;;;;;;;;;;;;;19.66;59.76;97514.13;4235650;27;5689;-68
2022/05/10 06:27:48;;;;;;;;;;;;;;;19.70;59.55;97515.28;4233699;28;5700;-68
2022/05/10 06:29:50;;;;;;;;;;;;;;;19.77;59.34;97523.22;4233262;28;5642;-69
2022/05/10 06:31:51;;;;;;;;;;;;;;;19.82;59.38;97518.00;4227709;28;5812;-69
2022/05/10 06:33:53;;;;;;;;;;;;;;;19.82;59.27;97515.31;4233029;28;5802;-68
2022/05/10 06:35:55;;;;;;;;;;;;;;;19.82;58.97;97518.00;4231999;28;5737;-68
2022/05/10 06:40:18;;;;;;;;;;;;;;;19.76;59.04;97525.09;4217254;28;5619;-69
2022/05/10 06:42:24;;;;;;;;;;;;;;;19.75;59.17;97528.84;4250541;27;5574;-69
2022/05/10 06:44:26;;;;;;;;;;;;;;;19.73;59.09;97522.06;4226103;28;5773;-68
2022/05/10 06:46:31;;;;;;;;;;;;;;;19.70;59.13;97527.88;4218431;28;5671;-68
2022/05/10 06:48:36;;;;;;;;;;;;;;;19.68;58.92;97528.13;4217972;28;5754;-68
2022/05/10 06:50:38;;;;;;;;;;;;;;;19.68;58.89;97528.13;4235658;27;5706;-68
2022/05/10 06:52:40;;;;;;;;;;;;;;;19.65;58.57;97533.16;4233803;28;5497;-69
2022/05/10 06:54:48;;;;;;;;;;;;;;;19.63;58.83;97529.88;4235238;28;5681;-69
2022/05/10 06:56:50;;;;;;;;;;;;;;;19.60;58.89;97528.50;4239654;27;5636;-69
2022/05/10 06:58:52;;;;;;;;;;;;;;;19.58;58.72;97538.59;4251426;27;6354;-69
2022/05/10 07:00:54;;;;;;;;;;;;;;;19.57;58.88;97536.16;4244330;27;5608;-69
2022/05/10 07:02:55;;;;;;;;;;;;;;;19.54;58.76;97526.69;4230031;27;5887;-69
2022/05/10 07:04:58;;;;;;;;;;;;;;;19.50;58.67;97530.91;4220023;27;7699;-69
2022/05/10 07:06:59;;;;;;;;;;;;;;;19.47;58.65;97537.50;4229707;28;5609;-69
2022/05/10 07:09:01;;;;;;;;;;;;;;;19.47;58.47;97544.75;4234352;27;6007;-68
2022/05/10 07:11:04;;;;;;;;;;;;;;;19.46;58.82;97543.94;4224034;28;5596;-69
2022/05/10 07:13:06;;;;;;;;;;;;;;;19.45;58.89;97547.66;4231477;27;5756;-69
2022/05/10 07:15:12;;;;;;;;;;;;;;;19.47;58.71;97544.75;4233973;28;5612;-69
2022/05/10 07:17:15;;;;;;;;;;;;;;;19.48;58.71;97543.72;4234162;28;6377;-68
2022/05/10 07:19:17;;;;;;;;;;;;;;;19.50;58.53;97541.63;4216707;28;5636;-69
2022/05/10 07:21:18;;;;;;;;;;;;;;;19.51;58.44;97543.25;4234334;28;6302;-68
2022/05/10 07:23:23;;;;;;;;;;;;;;;19.52;58.20;97533.34;4210396;28;5643;-69
2022/05/10 07:25:28;;;;;;;;;;;;;;;19.52;58.34;97539.53;4231992;28;5592;-69
2022/05/10 07:27:30;;;;;;;;;;;;;;;19.53;58.00;97546.53;4233273;28;5890;-68
2022/05/10 07:29:32;;;;;;;;;;;;;;;19.56;57.84;97547.94;4233521;28;5661;-69
2022/05/10 07:31:34;;;;;;;;;;;;;;;19.57;57.82;97541.53;4234950;28;5653;-69
2022/05/10 07:33:36;;;;;;;;;;;;;;;19.58;57.92;97549.34;4234814;27;5711;-69
2022/05/10 07:37:58;;;;;;;;;;;;;;;19.57;57.70;97544.22;4235107;28;5711;-68
2022/05/10 07:40:01;;;;;;;;;;;;;;;19.56;57.42;97548.75;4234893;28;5710;-69
2022/05/10 07:42:05;;;;;;;;;;;;;;;19.54;57.30;97550.00;4235108;27;5617;-68
2022/05/10 07:44:13;;;;;;;;;;;;;;;19.52;57.21;97547.56;4235000;27;5101;-68
2022/05/10 07:46:17;;;;;;;;;;;;;;;19.51;57.15;97537.88;4234851;28;5707;-68
2022/05/10 07:48:19;;;;;;;;;;;;;;;19.51;56.99;97532.53;4234337;28;5884;-68
2022/05/10 07:50:20;;;;;;;;;;;;;;;19.53;57.17;97532.28;4234994;28;6302;-68
2022/05/10 07:52:22;;;;;;;;;;;;;;;19.54;56.92;97532.06;4233473;28;5565;-68
2022/05/10 07:54:24;;;;;;;;;;;;;;;19.53;56.70;97533.09;4234949;28;5625;-68
2022/05/10 07:56:26;;;;;;;;;;;;;;;19.54;56.50;97531.25;4233416;28;5608;-68
2022/05/10 07:58:28;;;;;;;;;;;;;;;19.55;56.31;97528.34;4216799;28;5602;-69
2022/05/10 08:00:31;;;;;;;;;;;;;;;19.57;56.37;97536.97;4234667;28;6310;-68
2022/05/10 08:02:33;;;;;;;;;;;;;;;19.56;56.16;97529.97;4233693;28;5805;-68
2022/05/10 08:04:35;;;;;;;;;;;;;;;19.57;55.85;97530.78;4234409;28;5620;-68
2022/05/10 08:06:36;;;;;;;;;;;;;;;19.57;55.84;97526.25;4234426;28;5704;-69
2022/05/10 08:08:38;;;;;;;;;;;;;;;19.60;55.77;97520.44;4234706;27;5632;-69
2022/05/10 08:10:41;;;;;;;;;;;;;;;19.61;55.64;97522.06;4234476;28;5620;-68
2022/05/10 08:12:45;;;;;;;;;;;;;;;19.61;55.48;97527.44;4234577;27;5636;-68
2022/05/10 08:14:47;;;;;;;;;;;;;;;19.60;55.80;97519.63;4234569;28;6336;-68
2022/05/10 08:17:08;;;;;;;;;;;;;;;19.61;55.33;97526.63;4165705;28;5590;-68
2022/05/10 08:19:13;;;;;;;;;;;;;;;19.62;55.58;97526.38;4149207;28;5616;-69
2022/05/10 08:21:23;;;;;;;;;;;;;;;19.64;55.42;97526.16;4165629;28;5679;-68
2022/05/10 08:23:29;;;;;;;;;;;;;;;19.65;55.54;97525.91;4165764;28;5605;-68
2022/05/10 08:25:32;;;;;;;;;;;;;;;19.65;55.22;97523.22;4165626;28;5692;-68
2022/05/10 08:27:36;;;;;;;;;;;;;;;19.63;55.24;97525.34;4165589;28;5767;-68
2022/05/10 08:29:38;;;;;;;;;;;;;;;19.64;55.48;97516.22;4164118;28;5588;-68
2022/05/10 08:31:40;;;;;;;;;;;;;;;19.63;55.16;97519.97;4163468;28;5696;-68
2022/05/10 08:33:44;;;;;;;;;;;;;;;19.60;55.31;97517.75;4165284;28;5616;-68
2022/05/10 08:35:47;;;;;;;;;;;;;;;19.59;55.05;97512.59;4165846;28;5676;-68
2022/05/10 08:37:49;;;;;;;;;;;;;;;19.58;55.11;97514.47;4148565;28;5841;-68
2022/05/10 08:39:52;;;;;;;;;;;;;;;19.59;55.03;97521.47;4180848;28;5835;-68
2022/05/10 08:42:17;;;;;;;;;;;;;;;19.61;55.19;97511.34;4164419;28;5691;-68
2022/05/10 08:44:24;;;;;;;;;;;;;;;19.61;55.11;97515.91;4149405;28;5706;-68
2022/05/10 08:46:36;;;;;;;;;;;;;;;19.61;54.94;97516.72;4165159;28;5803;-68
2022/05/10 08:48:38;;;;;;;;;;;;;;;19.62;55.24;97517.53;4147706;28;6247;-68
2022/05/10 08:50:45;;;;;;;;;;;;;;;19.65;55.29;97520.56;4148744;28;5788;-68
2022/05/10 08:52:51;;;;;;;;;;;;;;;19.66;55.06;97508.78;4165172;28;5684;-68
2022/05/10 08:54:59;;;;;;;;;;;;;;;19.67;55.10;97515.75;4248349;27;5567;-68
2022/05/10 08:57:12;;;;;;;;;;;;;;;19.70;54.99;97511.78;4233290;28;5620;-68
2022/05/10 08:59:52;;;;;;;;;;;;;;;19.73;55.12;97512.16;4230265;27;5725;-71
2022/05/10 09:02:39;;;;;;;;;;;;;;;19.78;55.16;97508.75;4199747;28;5658;-75
2022/05/10 09:04:51;;;;;;;;;;;;;;;19.77;54.99;97510.63;4262302;27;5575;-74
2022/05/10 09:07:35;;;;;;;;;;;;;;;19.78;54.85;97506.91;4235508;28;5773;-72
2022/05/10 09:09:49;;;;;;;;;;;;;;;19.84;54.89;97509.72;4170824;28;5737;-69
2022/05/10 09:12:16;;;;;;;;;;;;;;;19.88;54.64;97509.00;4180723;28;5727;-71
2022/05/10 09:14:26;;;;;;;;;;;;;;;19.91;54.48;97513.88;4151038;28;5774;-68
2022/05/10 09:16:28;;;;;;;;;;;;;;;19.92;54.41;97510.16;4170763;28;5887;-68
2022/05/10 09:18:37;;;;;;;;;;;;;;;19.96;54.50;97513.19;4167458;28;5691;-66
2022/05/10 09:20:45;;;;;;;;;;;;;;;20.01;54.44;97510.59;4184248;28;5796;-73
2022/05/10 09:23:20;;;;;;;;;;;;;;;20.06;54.37;97505.38;4180958;28;5748;-71
2022/05/10 09:25:28;;;;;;;;;;;;;;;20.09;54.30;97514.81;4176047;28;5761;-69
2022/05/10 09:27:34;;;;;;;;;;;;;;;20.09;53.90;97507.56;4184374;28;5732;-74
2022/05/10 09:29:46;;;;;;;;;;;;;;;20.12;54.18;97512.47;4184186;28;6457;-79
2022/05/10 09:36:34;;;;;;;;;;;;;;;20.17;54.03;97501.84;4184644;28;5677;-70
2022/05/10 09:38:47;;;;;;;;;;;;;;;20.18;53.68;97506.16;4184560;28;5759;-69
2022/05/10 09:40:50;;;;;;;;;;;;;;;20.19;53.78;97501.59;4183779;28;5688;-79
2022/05/10 09:43:09;;;;;;;;;;;;;;;20.22;53.80;97501.13;4172471;28;5771;-75
2022/05/10 09:45:15;;;;;;;;;;;;;;;20.25;53.58;97501.44;4224828;27;5678;-75
2022/05/10 09:47:18;;;;;;;;;;;;;;;20.28;53.34;97489.44;4219739;28;5769;-74
2022/05/10 09:49:37;;;;;;;;;;;;;;;20.32;53.25;97494.09;4218831;28;5700;-76
2022/05/10 09:51:41;;;;;;;;;;;;;;;20.34;53.11;97500.03;4219643;28;5768;-75
2022/05/10 09:53:43;;;;;;;;;;;;;;;20.38;53.02;97499.53;4230422;28;5701;-75
2022/05/10 09:56:05;;;;;;;;;;;;;;;20.41;52.80;97493.72;4236387;28;6370;-75
2022/05/10 09:58:19;;;;;;;;;;;;;;;20.43;52.97;97495.13;4236539;28;5706;-76
2022/05/10 10:00:45;;;;;;;;;;;;;;;20.45;52.89;97489.53;4233943;28;5609;-75
2022/05/10 10:02:56;;;;;;;;;;;;;;;20.48;52.83;97483.66;4218156;28;5626;-75
2022/05/10 10:04:58;;;;;;;;;;;;;;;20.50;52.53;97489.59;4225054;28;5896;-75
2022/05/10 10:07:05;;;;;;;;;;;;;;;20.50;52.48;97486.91;4235020;28;5593;-78
2022/05/10 10:09:08;;;;;;;;;;;;;;;20.52;52.75;97492.91;4234511;28;5642;-80
2022/05/10 10:11:32;;;;;;;;;;;;;;;20.55;52.48;97490.53;4235982;28;5661;-75
2022/05/10 10:13:39;;;;;;;;;;;;;;;20.59;52.52;97486.31;4225734;27;5633;-72
2022/05/10 10:15:43;;;;;;;;;;;;;;;20.60;52.17;97493.31;4236098;27;5642;-73
2022/05/10 10:18:00;;;;;;;;;;;;;;;20.63;52.17;97492.84;4234019;28;5689;-74
2022/05/10 10:20:21;;;;;;;;;;;;;;;20.66;52.39;97491.53;4229872;27;5812;-73
2022/05/10 10:22:31;;;;;;;;;;;;;;;20.70;52.04;97486.50;4253128;27;6402;-71
2022/05/10 10:24:44;;;;;;;;;;;;;;;20.73;51.97;97492.22;4221939;28;5180;-71
2022/05/10 10:26:51;;;;;;;;;;;;;;;20.75;52.08;97483.91;4235910;28;5735;-71
2022/05/10 10:29:09;;;;;;;;;;;;;;;20.79;52.14;97485.06;4220771;28;5856;-71
2022/05/10 10:31:22;;;;;;;;;;;;;;;20.81;52.07;97486.44;4219098;28;5683;-71
2022/05/10 10:33:34;;;;;;;;;;;;;;;20.83;52.13;97484.31;4231222;28;5653;-71
2022/05/10 10:35:53;;;;;;;;;;;;;;;20.83;52.15;97481.63;4219011;28;5756;-71
2022/05/10 10:38:05;;;;;;;;;;;;;;;20.86;52.05;97469.63;4219482;28;5753;-71
2022/05/10 10:40:18;;;;;;;;;;;;;;;20.88;52.12;97478.25;4231668;28;6438;-71
2022/05/10 10:42:36;;;;;;;;;;;;;;;20.92;51.77;97469.44;4224224;27;5671;-71
2022/05/10 10:44:43;;;;;;;;;;;;;;;20.96;51.89;97469.78;4224133;28;7726;-71
2022/05/10 10:47:13;;;;;;;;;;;;;;;21.00;51.84;97459.34;4235429;27;5757;-70
2022/05/10 10:49:23;;;;;;;;;;;;;;;21.02;51.87;97470.69;4235291;28;5726;-71
2022/05/10 10:51:31;;;;;;;;;;;;;;;21.05;51.71;97462.94;4235769;27;5616;-69
2022/05/10 10:53:34;;;;;;;;;;;;;;;21.06;51.56;97469.94;4235722;28;5629;-76
2022/05/10 10:55:56;;;;;;;;;;;;;;;21.08;51.53;97461.66;4218779;27;5783;-76
2022/05/10 10:58:03;;;;;;;;;;;;;;;21.10;51.46;97454.97;4218370;28;5660;-75
2022/05/10 11:00:13;;;;;;;;;;;;;;;21.10;51.65;97460.34;4234449;28;5666;-75
2022/05/10 11:02:44;;;;;;;;;;;;;;;21.13;51.47;97459.03;4218306;27;5969;-76
2022/05/10 11:04:48;;;;;;;;;;;;;;;21.14;51.58;97461.47;4218164;28;5835;-76
2022/05/10 11:06:52;;;;;;;;;;;;;;;21.15;51.36;97456.91;4218378;28;5675;-76
2022/05/10 11:09:12;;;;;;;;;;;;;;;21.15;51.08;97446.16;4224491;28;5734;-77
2022/05/10 11:11:39;;;;;;;;;;;;;;;21.17;51.01;97446.72;4227336;28;5748;-76
2022/05/10 11:14:05;;;;;;;;;;;;;;;21.21;51.17;97439.81;4231076;28;5809;-76
2022/05/10 11:16:06;;;;;;;;;;;;;;;21.23;50.97;97443.88;4227797;28;5896;-76
2022/05/10 11:18:26;;;;;;;;;;;;;;;21.26;51.16;97439.09;4218094;28;5805;-77
2022/05/10 11:21:06;;;;;;;;;;;;;;;21.27;50.78;97433.47;4221373;28;5646;-76
2022/05/10 11:23:08;;;;;;;;;;;;;;;21.29;51.00;97436.72;4203203;28;5873;-75
2022/05/10 11:25:26;;;;;;;;;;;;;;;21.32;50.88;97435.44;4222415;28;5654;-77
2022/05/10 11:28:12;;;;;;;;;;;;;;;21.33;50.98;97427.13;4234158;28;5630;-76
2022/05/10 11:30:21;;;;;;;;;;;;;;;21.33;50.64;97427.13;4230466;27;5821;-76
2022/05/10 11:32:47;;;;;;;;;;;;;;;21.34;50.80;97423.38;4232224;27;5700;-77
2022/05/10 11:34:58;;;;;;;;;;;;;;;21.37;50.65;97419.38;4218152;28;5667;-77
2022/05/10 11:37:03;;;;;;;;;;;;;;;21.39;50.30;97419.94;4222354;27;5683;-76
2022/05/10 11:39:29;;;;;;;;;;;;;;;21.42;50.51;97417.59;4224753;28;5711;-78
2022/05/10 11:42:08;;;;;;;;;;;;;;;21.43;50.16;97416.53;4231002;27;5893;-77
2022/05/10 11:44:51;;;;;;;;;;;;;;;21.45;50.14;97419.78;4222859;28;5672;-77
2022/05/10 11:47:09;;;;;;;;;;;;;;;21.47;49.96;97414.94;4217666;28;5675;-77
2022/05/10 11:49:19;;;;;;;;;;;;;;;21.49;49.91;97394.00;4223779;28;5659;-76
2022/05/10 11:51:42;;;;;;;;;;;;;;;21.52;49.87;97406.16;4232948;28;5657;-77
2022/05/10 11:54:02;;;;;;;;;;;;;;;21.55;50.06;97391.38;4221263;28;5803;-76
2022/05/10 11:56:04;;;;;;;;;;;;;;;21.59;50.08;97392.50;4224451;27;5916;-76
2022/05/10 11:58:08;;;;;;;;;;;;;;;21.62;50.03;97394.69;4222214;28;5798;-77
2022/05/10 12:00:40;;;;;;;;;;;;;;;21.65;49.85;97399.59;4234493;28;5646;-76
2022/05/10 12:02:47;;;;;;;;;;;;;;;21.67;49.76;97400.16;4227560;28;5748;-77
2022/05/10 12:04:48;;;;;;;;;;;;;;;21.71;49.84;97390.50;4235025;27;5643;-77
2022/05/10 12:06:50;;;;;;;;;;;;;;;21.73;49.92;97388.38;4225771;28;5718;-77
2022/05/10 12:08:57;;;;;;;;;;;;;;;21.77;49.94;97384.16;4229503;28;5658;-76
2022/05/10 12:11:27;;;;;;;;;;;;;;;21.79;50.05;97382.00;4230259;28;5620;-77
2022/05/10 12:21:24;;;;;;;;;;;;;;;21.90;50.00;97375.69;4217467;28;5113;-77
2022/05/10 12:24:05;;;;;;;;;;;;;;;21.94;49.91;97367.91;4219840;27;5622;-76
2022/05/10 12:26:09;;;;;;;;;;;;;;;21.96;50.17;97363.09;4224633;28;5690;-76
2022/05/10 12:29:00;;;;;;;;;;;;;;;21.98;49.83;97364.50;4216452;28;5738;-76
2022/05/10 12:31:34;;;;;;;;;;;;;;;21.99;49.97;97365.31;4235928;27;5674;-77
2022/05/10 12:33:37;;;;;;;;;;;;;;;22.00;49.73;97359.66;4227795;27;5824;-77
2022/05/10 12:35:44;;;;;;;;;;;;;;;22.03;49.85;97361.03;4229778;28;5671;-76
2022/05/10 12:37:49;;;;;;;;;;;;;;;22.06;49.72;97355.97;4217568;28;5754;-73
2022/05/10 12:40:03;;;;;;;;;;;;;;;22.08;49.86;97353.88;4220072;27;5679;-72
2022/05/10 12:42:13;;;;;;;;;;;;;;;22.15;49.80;97345.56;4220814;28;5666;-77
2022/05/10 12:44:52;;;;;;;;;;;;;;;22.23;49.60;97344.31;4220975;28;5816;-69
2022/05/10 12:47:24;;;;;;;;;;;;;;;22.40;49.87;97333.41;4220267;28;5746;-73
2022/05/10 12:49:43;;;;;;;;;;;;;;;22.47;49.79;97342.94;4224002;27;5744;-63
2022/05/10 12:52:13;;;;;;;;;;;;;;;22.50;49.30;97339.72;4232496;27;5705;-64
2022/05/10 12:54:37;;;;;;;;;;;;;;;22.55;49.42;97331.69;4232326;28;5788;-64
2022/05/10 12:57:06;;;;;;;;;;;;;;;22.59;48.92;97331.97;4223220;27;5732;-64
2022/05/10 12:59:15;;;;;;;;;;;;;;;22.60;49.13;97329.03;4224507;27;5815;-64
2022/05/10 13:01:19;;;;;;;;;;;;;;;22.61;49.24;97319.06;4223818;28;5753;-64
2022/05/10 13:03:27;;;;;;;;;;;;;;;22.62;48.87;97321.50;4233707;27;6304;-64
2022/05/10 13:06:07;;;;;;;;;;;;;;;22.64;49.07;97321.22;4223502;27;5852;-64
2022/05/10 13:08:43;;;;;;;;;;;;;;;22.65;48.64;97321.00;4235849;28;5732;-64
2022/05/10 13:11:06;;;;;;;;;;;;;;;22.69;48.54;97315.09;4224419;28;5849;-64
2022/05/10 13:13:19;;;;;;;;;;;;;;;22.71;48.99;97313.75;4220974;27;5668;-64
2022/05/10 13:15:23;;;;;;;;;;;;;;;22.74;48.73;97305.16;4234416;28;5839;-64
2022/05/10 13:17:30;;;;;;;;;;;;;;;22.78;48.33;97308.16;4226499;27;5722;-65
2022/05/10 13:19:40;;;;;;;;;;;;;;;22.82;48.42;97304.69;4224859;27;5665;-65
2022/05/10 13:21:42;;;;;;;;;;;;;;;22.87;48.22;97301.22;4219616;28;5695;-65
2022/05/10 13:23:44;;;;;;;;;;;;;;;22.91;48.54;97300.47;4224006;27;5838;-65
2022/05/10 13:25:48;;;;;;;;;;;;;;;22.96;48.26;97302.38;4223805;27;5782;-65
2022/05/10 13:27:52;;;;;;;;;;;;;;;23.00;48.04;97303.50;4263871;27;5638;-65
2022/05/10 13:29:57;;;;;;;;;;;;;;;23.02;48.09;97303.22;4226097;27;5655;-65
2022/05/10 13:31:58;;;;;;;;;;;;;;;23.04;47.81;97307.28;4224458;27;5786;-65
2022/05/10 13:34:12;;;;;;;;;;;;;;;23.08;47.96;97297.59;4222783;27;5862;-65
2022/05/10 13:36:18;;;;;;;;;;;;;;;23.12;48.04;97296.00;4221575;28;5734;-65
2022/05/10 13:38:29;;;;;;;;;;;;;;;23.15;47.74;97292.78;4223071;27;5781;-64
2022/05/10 13:40:41;;;;;;;;;;;;;;;23.17;47.82;97290.63;4224801;27;5679;-64
2022/05/10 13:42:46;;;;;;;;;;;;;;;23.19;47.77;97291.19;4224276;27;5658;-65
2022/05/10 13:44:48;;;;;;;;;;;;;;;23.22;47.77;97287.97;4229285;28;5556;-64
2022/05/10 13:46:54;;;;;;;;;;;;;;;23.24;47.60;97279.63;4228336;28;6544;-65
2022/05/10 13:49:15;;;;;;;;;;;;;;;23.25;47.62;97275.84;4221588;27;6375;-65
2022/05/10 13:51:27;;;;;;;;;;;;;;;23.27;47.70;97272.88;4218416;27;6269;-64
2022/05/10 13:53:31;;;;;;;;;;;;;;;23.28;47.42;97272.63;4221141;28;5786;-64
2022/05/10 13:55:42;;;;;;;;;;;;;;;23.28;47.26;97271.81;4219371;27;5772;-65
2022/05/10 13:57:54;;;;;;;;;;;;;;;;;;4233082;27;5645;-65
2022/05/10 13:59:58;;;;;;;;;;;;;;;23.33;47.43;97269.13;4222095;27;5801;-65
2022/05/10 14:02:05;;;;;;;;;;;;;;;23.35;47.32;97265.09;4230746;27;5877;-64
2022/05/10 14:04:10;;;;;;;;;;;;;;;23.35;47.07;97262.41;4222235;27;5509;-65
2022/05/10 14:06:19;;;;;;;;;;;;;;;23.37;47.00;97256.75;4223740;28;5873;-64
2022/05/10 14:08:26;;;;;;;;;;;;;;;23.39;46.71;97254.59;4220344;28;6360;-65
2022/05/10 14:10:32;;;;;;;;;;;;;;;23.41;46.78;97252.44;4225065;28;5833;-65
2022/05/10 14:12:36;;;;;;;;;;;;;;;23.43;47.24;97252.97;4225741;28;5845;-65
2022/05/10 14:14:37;;;;;;;;;;;;;;;23.45;46.78;97250.84;4220666;28;5747;-65
2022/05/10 14:16:41;;;;;;;;;;;;;;;23.46;46.52;97244.38;4221687;27;5663;-65
2022/05/10 14:18:46;;;;;;;;;;;;;;;23.48;46.79;97250.31;4223814;28;5786;-65
2022/05/10 14:20:49;;;;;;;;;;;;;;;23.49;46.65;97243.84;4225409;27;5691;-64
2022/05/10 14:22:55;;;;;;;;;;;;;;;23.48;47.05;97242.22;4221494;27;5674;-65
2022/05/10 14:24:56;;;;;;;;;;;;;;;23.48;47.07;97242.22;4249206;27;5819;-65
2022/05/10 14:27:15;;;;;;;;;;;;;;;23.49;47.05;97238.44;4236277;27;5639;-65
2022/05/10 14:29:20;;;;;;;;;;;;;;;23.51;46.98;97237.09;4231380;27;6432;-65
2022/05/10 14:31:31;;;;;;;;;;;;;;;23.54;46.85;97241.16;4219101;27;5789;-64
2022/05/10 14:33:39;;;;;;;;;;;;;;;23.57;46.88;97240.63;4226787;28;5608;-65
2022/05/10 14:35:46;;;;;;;;;;;;;;;23.59;46.89;97238.50;4223843;28;5671;-65
2022/05/10 14:37:50;;;;;;;;;;;;;;;23.63;47.11;97230.69;4226395;27;5646;-65
2022/05/10 14:39:53;;;;;;;;;;;;;;;23.65;46.75;97221.25;4230455;27;5808;-65
2022/05/10 14:41:55;;;;;;;;;;;;;;;23.69;46.62;97229.63;4234095;27;5702;-66
2022/05/10 14:43:57;;;;;;;;;;;;;;;23.74;46.88;97225.03;4235448;28;5698;-66
2022/05/10 14:46:20;;;;;;;;;;;;;;;23.79;46.68;97227.78;4238945;27;5609;-65
2022/05/10 14:48:36;;;;;;;;;;;;;;;23.83;46.74;97219.13;4234785;27;5105;-66
2022/05/10 14:50:42;;;;;;;;;;;;;;;23.82;46.12;97215.63;4215261;28;5630;-66
2022/05/10 14:53:12;;;;;;;;;;;;;;;23.82;46.30;97212.94;4239078;27;6275;-66
2022/05/10 14:55:31;;;;;;;;;;;;;;;23.81;46.09;97209.41;4233910;28;5654;-65
2022/05/10 14:57:36;;;;;;;;;;;;;;;23.84;46.51;97212.66;4228143;27;5661;-65
2022/05/10 14:59:54;;;;;;;;;;;;;;;23.84;46.43;97201.84;4230797;27;5918;-65
2022/05/10 15:01:55;;;;;;;;;;;;;;;23.85;46.04;97209.69;4226863;28;5625;-66
2022/05/10 15:04:03;;;;;;;;;;;;;;;23.84;46.55;97197.25;4228515;27;5650;-66
2022/05/10 15:06:07;;;;;;;;;;;;;;;23.85;46.17;97189.97;4232774;28;5632;-66
2022/05/10 15:08:10;;;;;;;;;;;;;;;23.86;46.25;97194.28;4232510;28;5686;-65
2022/05/10 15:10:12;;;;;;;;;;;;;;;23.85;46.41;97187.28;4227674;27;5868;-65
2022/05/10 15:14:34;;;;;;;;;;;;;;;23.87;46.17;97190.50;4226536;27;5664;-65
2022/05/10 15:16:43;;;;;;;;;;;;;;;23.86;46.27;97184.31;4224192;28;5678;-66
2022/05/10 15:19:00;;;;;;;;;;;;;;;23.88;46.38;97192.94;4223037;27;6464;-65
2022/05/10 15:21:02;;;;;;;;;;;;;;;23.88;45.93;97181.31;4227215;27;5825;-65
2022/05/10 15:23:04;;;;;;;;;;;;;;;23.91;46.18;97180.81;4229972;28;5667;-65
2022/05/10 15:25:06;;;;;;;;;;;;;;;23.92;45.83;97182.44;4223974;27;5839;-65
2022/05/10 15:27:17;;;;;;;;;;;;;;;23.94;45.83;97182.97;4233691;28;5641;-65
2022/05/10 15:29:24;;;;;;;;;;;;;;;23.96;45.55;97176.22;4234105;28;5750;-65
2022/05/10 15:31:27;;;;;;;;;;;;;;;23.99;46.04;97180.25;4228432;27;6505;-65
2022/05/10 15:33:29;;;;;;;;;;;;;;;23.99;45.42;97172.16;4229445;27;6078;-64
2022/05/10 15:35:30;;;;;;;;;;;;;;;23.99;45.50;97175.66;4225960;28;5749;-65
2022/05/10 15:37:32;;;;;;;;;;;;;;;23.97;45.46;97171.63;4226565;28;5741;-75
2022/05/10 15:39:34;;;;;;;;;;;;;;;23.97;45.53;97177.03;4231414;27;5748;-66
2022/05/10 15:41:36;;;;;;;;;;;;;;;23.96;45.46;97178.09;4231713;28;5825;-67
2022/05/10 15:43:38;;;;;;;;;;;;;;;23.93;45.69;97173.25;4231559;27;5752;-64
2022/05/10 15:45:40;;;;;;;;;;;;;;;23.91;45.46;97181.63;4231373;28;5760;-65
2022/05/10 15:47:44;;;;;;;;;;;;;;;23.89;45.34;97177.53;4230368;28;6547;-64
2022/05/10 15:49:45;;;;;;;;;;;;;;;23.87;45.14;97179.72;4228065;28;5731;-64
2022/05/10 15:51:47;;;;;;;;;;;;;;;23.85;45.25;97177.28;4228280;28;5748;-63
2022/05/10 15:53:49;;;;;;;;;;;;;;;23.84;45.32;97169.44;4230836;28;5777;-65
2022/05/10 15:55:52;;;;;;;;;;;;;;;23.83;45.18;97168.66;4219198;28;5691;-66
2022/05/10 15:57:55;;;;;;;;;;;;;;;23.83;45.04;97174.03;4220757;28;5727;-66
2022/05/10 15:59:57;;;;;;;;;;;;;;;23.84;45.22;97177.56;4221634;27;6433;-65
2022/05/10 16:02:00;;;;;;;;;;;;;;;23.84;44.85;97164.88;4256677;27;5674;-65
2022/05/10 16:04:02;;;;;;;;;;;;;;;23.85;45.09;97171.06;4235414;27;5757;-65
2022/05/10 16:06:05;;;;;;;;;;;;;;;23.86;44.80;97165.41;4218749;27;5752;-65